sensor_id;sensor_type;location;lat;lon;timestamp;temperature;humidity
6496;DHT22;3281;47.658;9.166;2023-01-23T00:00:53;2.40;1.00
6496;DHT22;3281;47.658;9.166;2023-01-23T00:03:20;2.40;1.00
6496;DHT22;3281;47.658;9.166;2023-01-23T00:05:55;2.40;1.00
6496;DHT22;3281;47.658;9.166;2023-01-23T00:08:22;2.40;1.00
6496;DHT22;3281;47.658;9.166;2023-01-23T00:10:49;2.40;1.00
6496;DHT22;3281;47.658;9.166;2023-01-23T00:13:17;2.40;1.00
6496;DHT22;3281;47.658;9.166;2023-01-23T00:15:45;2.40;1.00
6496;DHT22;3281;47.658;9.166;2023-01-23T00:18:12;2.40;1.00
6496;DHT22;3281;47.658;9.166;2023-01-23T00:20:39;2.30;1.00
6496;DHT22;3281;47.658;9.166;2023-01-23T00:23:06;2.30;1.00
6496;DHT22;3281;47.658;9.166;2023-01-23T00:25:33;2.50;1.00
6496;DHT22;3281;47.658;9.166;2023-01-23T00:28:01;2.50;1.00
6496;DHT22;3281;47.658;9.166;2023-01-23T00:30:29;2.30;1.00
6496;DHT22;3281;47.658;9.166;2023-01-23T00:32:56;2.40;1.00
6496;DHT22;3281;47.658;9.166;2023-01-23T00:35:23;2.50;1.00
6496;DHT22;3281;47.658;9.166;2023-01-23T00:37:49;2.50;1.00
6496;DHT22;3281;47.658;9.166;2023-01-23T00:40:16;2.30;1.00
6496;DHT22;3281;47.658;9.166;2023-01-23T00:42:43;2.10;1.00
6496;DHT22;3281;47.658;9.166;2023-01-23T00:45:10;2.10;1.00
6496;DHT22;3281;47.658;9.166;2023-01-23T00:47:38;2.10;1.00
6496;DHT22;3281;47.658;9.166;2023-01-23T00:50:05;2.20;1.00
6496;DHT22;3281;47.658;9.166;2023-01-23T00:52:32;2.10;1.00
6496;DHT22;3281;47.658;9.166;2023-01-23T00:54:59;2.10;1.00
6496;DHT22;3281;47.658;9.166;2023-01-23T00:57:27;2.20;1.00
6496;DHT22;3281;47.658;9.166;2023-01-23T00:59:54;2.20;1.00
6496;DHT22;3281;47.658;9.166;2023-01-23T01:02:21;2.30;1.00
6496;DHT22;3281;47.658;9.166;2023-01-23T01:04:49;2.30;1.00
6496;DHT22;3281;47.658;9.166;2023-01-23T01:07:16;2.40;1.00
6496;DHT22;3281;47.658;9.166;2023-01-23T01:09:42;2.20;1.00
6496;DHT22;3281;47.658;9.166;2023-01-23T01:12:09;2.30;1.00
6496;DHT22;3281;47.658;9.166;2023-01-23T01:14:36;2.50;1.00
6496;DHT22;3281;47.658;9.166;2023-01-23T01:17:02;2.40;1.00
6496;DHT22;3281;47.658;9.166;2023-01-23T01:19:29;2.40;1.00
6496;DHT22;3281;47.658;9.166;2023-01-23T01:21:57;2.20;1.00
6496;DHT22;3281;47.658;9.166;2023-01-23T01:24:24;2.30;1.00
6496;DHT22;3281;47.658;9.166;2023-01-23T01:26:51;2.30;1.00
6496;DHT22;3281;47.658;9.166;2023-01-23T01:29:18;2.30;1.00
6496;DHT22;3281;47.658;9.166;2023-01-23T01:31:44;2.40;1.00
6496;DHT22;3281;47.658;9.166;2023-01-23T01:34:11;2.10;1.00
6496;DHT22;3281;47.658;9.166;2023-01-23T01:36:38;2.00;1.00
6496;DHT22;3281;47.658;9.166;2023-01-23T01:39:06;1.90;1.00
6496;DHT22;3281;47.658;9.166;2023-01-23T01:41:33;2.00;1.00
6496;DHT22;3281;47.658;9.166;2023-01-23T01:44:00;2.10;1.00
6496;DHT22;3281;47.658;9.166;2023-01-23T01:46:28;2.10;1.00
6496;DHT22;3281;47.658;9.166;2023-01-23T01:49:06;2.10;1.00
6496;DHT22;3281;47.658;9.166;2023-01-23T01:51:38;2.20;1.00
6496;DHT22;3281;47.658;9.166;2023-01-23T01:54:13;1.90;1.00
6496;DHT22;3281;47.658;9.166;2023-01-23T01:56:46;1.80;1.00
6496;DHT22;3281;47.658;9.166;2023-01-23T01:59:14;1.90;1.00
6496;DHT22;3281;47.658;9.166;2023-01-23T02:01:44;1.90;1.00
6496;DHT22;3281;47.658;9.166;2023-01-23T02:04:12;1.80;1.00
6496;DHT22;3281;47.658;9.166;2023-01-23T02:06:40;1.80;1.00
6496;DHT22;3281;47.658;9.166;2023-01-23T02:09:13;1.90;1.00
6496;DHT22;3281;47.658;9.166;2023-01-23T02:11:41;2.00;1.00
6496;DHT22;3281;47.658;9.166;2023-01-23T02:14:08;1.90;1.00
6496;DHT22;3281;47.658;9.166;2023-01-23T02:16:36;1.70;1.00
6496;DHT22;3281;47.658;9.166;2023-01-23T02:19:15;1.60;1.00
6496;DHT22;3281;47.658;9.166;2023-01-23T02:21:45;1.50;1.00
6496;DHT22;3281;47.658;9.166;2023-01-23T02:24:21;1.50;1.00
6496;DHT22;3281;47.658;9.166;2023-01-23T02:26:52;1.50;1.00
6496;DHT22;3281;47.658;9.166;2023-01-23T02:29:19;1.50;1.00
6496;DHT22;3281;47.658;9.166;2023-01-23T02:31:46;1.30;1.00
6496;DHT22;3281;47.658;9.166;2023-01-23T02:34:16;1.40;1.00
6496;DHT22;3281;47.658;9.166;2023-01-23T02:36:46;1.30;1.00
6496;DHT22;3281;47.658;9.166;2023-01-23T02:39:15;1.30;1.00
6496;DHT22;3281;47.658;9.166;2023-01-23T02:41:43;1.30;1.00
6496;DHT22;3281;47.658;9.166;2023-01-23T02:44:15;1.50;1.00
6496;DHT22;3281;47.658;9.166;2023-01-23T02:46:43;1.40;1.00
6496;DHT22;3281;47.658;9.166;2023-01-23T02:49:10;1.50;1.00
6496;DHT22;3281;47.658;9.166;2023-01-23T02:51:36;1.40;1.00
6496;DHT22;3281;47.658;9.166;2023-01-23T02:54:03;1.30;1.00
6496;DHT22;3281;47.658;9.166;2023-01-23T02:56:30;1.10;1.00
6496;DHT22;3281;47.658;9.166;2023-01-23T02:58:58;1.30;1.00
6496;DHT22;3281;47.658;9.166;2023-01-23T03:01:44;1.20;1.00
6496;DHT22;3281;47.658;9.166;2023-01-23T03:04:10;1.20;1.00
6496;DHT22;3281;47.658;9.166;2023-01-23T03:06:37;1.30;1.00
6496;DHT22;3281;47.658;9.166;2023-01-23T03:09:06;1.20;1.00
6496;DHT22;3281;47.658;9.166;2023-01-23T03:11:35;1.10;1.00
6496;DHT22;3281;47.658;9.166;2023-01-23T03:14:02;1.20;1.00
6496;DHT22;3281;47.658;9.166;2023-01-23T03:16:30;1.30;1.00
6496;DHT22;3281;47.658;9.166;2023-01-23T03:19:00;1.30;1.00
6496;DHT22;3281;47.658;9.166;2023-01-23T03:21:30;1.30;1.00
6496;DHT22;3281;47.658;9.166;2023-01-23T03:23:57;1.20;1.00
6496;DHT22;3281;47.658;9.166;2023-01-23T03:26:24;1.10;1.00
6496;DHT22;3281;47.658;9.166;2023-01-23T03:28:51;1.10;1.00
6496;DHT22;3281;47.658;9.166;2023-01-23T03:31:35;1.10;1.00
6496;DHT22;3281;47.658;9.166;2023-01-23T03:34:03;0.90;1.00
6496;DHT22;3281;47.658;9.166;2023-01-23T03:36:29;0.90;1.00
6496;DHT22;3281;47.658;9.166;2023-01-23T03:38:56;0.90;1.00
6496;DHT22;3281;47.658;9.166;2023-01-23T03:41:37;0.90;1.00
6496;DHT22;3281;47.658;9.166;2023-01-23T03:44:06;0.80;1.00
6496;DHT22;3281;47.658;9.166;2023-01-23T03:46:34;0.80;1.00
6496;DHT22;3281;47.658;9.166;2023-01-23T03:49:00;0.80;1.00
6496;DHT22;3281;47.658;9.166;2023-01-23T03:51:28;0.80;1.00
6496;DHT22;3281;47.658;9.166;2023-01-23T03:53:55;0.80;1.00
6496;DHT22;3281;47.658;9.166;2023-01-23T03:56:22;0.80;1.00
6496;DHT22;3281;47.658;9.166;2023-01-23T03:58:48;0.80;1.00
6496;DHT22;3281;47.658;9.166;2023-01-23T04:01:15;0.80;1.00
6496;DHT22;3281;47.658;9.166;2023-01-23T04:03:42;0.90;1.00
6496;DHT22;3281;47.658;9.166;2023-01-23T04:06:09;0.80;1.00
6496;DHT22;3281;47.658;9.166;2023-01-23T04:08:37;0.80;1.00
6496;DHT22;3281;47.658;9.166;2023-01-23T04:11:06;0.60;1.00
6496;DHT22;3281;47.658;9.166;2023-01-23T04:13:33;0.60;1.00
6496;DHT22;3281;47.658;9.166;2023-01-23T04:16:00;0.50;1.00
6496;DHT22;3281;47.658;9.166;2023-01-23T04:18:27;0.60;1.00
6496;DHT22;3281;47.658;9.166;2023-01-23T04:20:54;0.40;1.00
6496;DHT22;3281;47.658;9.166;2023-01-23T04:23:22;0.50;1.00
6496;DHT22;3281;47.658;9.166;2023-01-23T04:25:50;0.60;1.00
6496;DHT22;3281;47.658;9.166;2023-01-23T04:28:17;0.40;1.00
6496;DHT22;3281;47.658;9.166;2023-01-23T04:30:45;0.40;1.00
6496;DHT22;3281;47.658;9.166;2023-01-23T04:33:12;0.40;1.00
6496;DHT22;3281;47.658;9.166;2023-01-23T04:35:38;0.50;1.00
6496;DHT22;3281;47.658;9.166;2023-01-23T04:38:05;0.40;1.00
6496;DHT22;3281;47.658;9.166;2023-01-23T04:40:32;0.40;1.00
6496;DHT22;3281;47.658;9.166;2023-01-23T04:43:00;0.40;1.00
6496;DHT22;3281;47.658;9.166;2023-01-23T04:45:26;0.40;1.00
6496;DHT22;3281;47.658;9.166;2023-01-23T04:47:53;0.70;1.00
6496;DHT22;3281;47.658;9.166;2023-01-23T04:50:20;0.80;1.00
6496;DHT22;3281;47.658;9.166;2023-01-23T04:52:46;0.70;1.00
6496;DHT22;3281;47.658;9.166;2023-01-23T04:55:13;0.80;1.00
6496;DHT22;3281;47.658;9.166;2023-01-23T04:57:40;0.70;1.00
6496;DHT22;3281;47.658;9.166;2023-01-23T05:00:09;0.60;1.00
6496;DHT22;3281;47.658;9.166;2023-01-23T05:02:36;0.60;1.00
6496;DHT22;3281;47.658;9.166;2023-01-23T05:05:03;0.50;1.00
6496;DHT22;3281;47.658;9.166;2023-01-23T05:07:30;0.40;1.00
6496;DHT22;3281;47.658;9.166;2023-01-23T05:09:57;0.40;1.00
6496;DHT22;3281;47.658;9.166;2023-01-23T05:12:24;0.50;1.00
6496;DHT22;3281;47.658;9.166;2023-01-23T05:14:51;0.60;1.00
6496;DHT22;3281;47.658;9.166;2023-01-23T05:17:19;0.60;1.00
6496;DHT22;3281;47.658;9.166;2023-01-23T05:19:45;0.60;1.00
6496;DHT22;3281;47.658;9.166;2023-01-23T05:22:12;0.70;1.00
6496;DHT22;3281;47.658;9.166;2023-01-23T05:24:39;0.70;1.00
6496;DHT22;3281;47.658;9.166;2023-01-23T05:27:05;0.80;1.00
6496;DHT22;3281;47.658;9.166;2023-01-23T05:29:32;0.80;1.00
6496;DHT22;3281;47.658;9.166;2023-01-23T05:31:59;0.80;1.00
6496;DHT22;3281;47.658;9.166;2023-01-23T05:34:27;0.80;1.00
6496;DHT22;3281;47.658;9.166;2023-01-23T05:36:53;0.80;1.00
6496;DHT22;3281;47.658;9.166;2023-01-23T05:39:20;1.00;1.00
6496;DHT22;3281;47.658;9.166;2023-01-23T05:41:47;1.10;1.00
6496;DHT22;3281;47.658;9.166;2023-01-23T05:44:14;0.90;1.00
6496;DHT22;3281;47.658;9.166;2023-01-23T05:46:40;0.90;1.00
6496;DHT22;3281;47.658;9.166;2023-01-23T05:49:07;1.00;1.00
6496;DHT22;3281;47.658;9.166;2023-01-23T05:51:35;1.00;1.00
6496;DHT22;3281;47.658;9.166;2023-01-23T05:54:02;1.10;1.00
6496;DHT22;3281;47.658;9.166;2023-01-23T05:56:29;0.90;1.00
6496;DHT22;3281;47.658;9.166;2023-01-23T05:58:56;0.90;1.00
6496;DHT22;3281;47.658;9.166;2023-01-23T06:01:23;0.90;1.00
6496;DHT22;3281;47.658;9.166;2023-01-23T06:03:49;1.00;1.00
6496;DHT22;3281;47.658;9.166;2023-01-23T06:06:16;0.90;1.00
6496;DHT22;3281;47.658;9.166;2023-01-23T06:08:44;0.90;1.00
6496;DHT22;3281;47.658;9.166;2023-01-23T06:11:11;0.80;1.00
6496;DHT22;3281;47.658;9.166;2023-01-23T06:13:37;0.80;1.00
6496;DHT22;3281;47.658;9.166;2023-01-23T06:16:05;0.90;1.00
6496;DHT22;3281;47.658;9.166;2023-01-23T06:18:31;1.00;1.00
6496;DHT22;3281;47.658;9.166;2023-01-23T06:20:59;1.10;1.00
6496;DHT22;3281;47.658;9.166;2023-01-23T06:23:25;1.20;1.00
6496;DHT22;3281;47.658;9.166;2023-01-23T06:25:58;1.00;1.00
6496;DHT22;3281;47.658;9.166;2023-01-23T06:28:25;0.90;1.00
6496;DHT22;3281;47.658;9.166;2023-01-23T06:30:51;1.00;1.00
6496;DHT22;3281;47.658;9.166;2023-01-23T06:33:18;0.90;1.00
6496;DHT22;3281;47.658;9.166;2023-01-23T06:35:45;1.00;1.00
6496;DHT22;3281;47.658;9.166;2023-01-23T06:38:11;1.00;1.00
6496;DHT22;3281;47.658;9.166;2023-01-23T06:40:38;0.90;1.00
6496;DHT22;3281;47.658;9.166;2023-01-23T06:43:06;0.90;1.00
6496;DHT22;3281;47.658;9.166;2023-01-23T06:45:33;1.00;1.00
6496;DHT22;3281;47.658;9.166;2023-01-23T06:47:59;1.10;1.00
6496;DHT22;3281;47.658;9.166;2023-01-23T06:50:26;1.00;1.00
6496;DHT22;3281;47.658;9.166;2023-01-23T06:52:53;1.20;1.00
6496;DHT22;3281;47.658;9.166;2023-01-23T06:55:19;1.00;1.00
6496;DHT22;3281;47.658;9.166;2023-01-23T06:57:46;0.80;1.00
6496;DHT22;3281;47.658;9.166;2023-01-23T07:00:15;0.90;1.00
6496;DHT22;3281;47.658;9.166;2023-01-23T07:02:42;0.80;1.00
6496;DHT22;3281;47.658;9.166;2023-01-23T07:05:08;0.80;1.00
6496;DHT22;3281;47.658;9.166;2023-01-23T07:07:35;0.80;1.00
6496;DHT22;3281;47.658;9.166;2023-01-23T07:10:02;0.80;1.00
6496;DHT22;3281;47.658;9.166;2023-01-23T07:12:29;0.90;1.00
6496;DHT22;3281;47.658;9.166;2023-01-23T07:14:55;0.80;1.00
6496;DHT22;3281;47.658;9.166;2023-01-23T07:17:23;1.00;1.00
6496;DHT22;3281;47.658;9.166;2023-01-23T07:19:50;1.00;1.00
6496;DHT22;3281;47.658;9.166;2023-01-23T07:22:17;1.00;1.00
6496;DHT22;3281;47.658;9.166;2023-01-23T07:24:44;1.10;1.00
6496;DHT22;3281;47.658;9.166;2023-01-23T07:27:10;1.20;1.00
6496;DHT22;3281;47.658;9.166;2023-01-23T07:29:37;1.20;1.00
6496;DHT22;3281;47.658;9.166;2023-01-23T07:32:04;1.20;1.00
6496;DHT22;3281;47.658;9.166;2023-01-23T07:34:32;1.30;1.00
6496;DHT22;3281;47.658;9.166;2023-01-23T07:36:59;1.50;1.00
6496;DHT22;3281;47.658;9.166;2023-01-23T07:39:26;1.50;1.00
6496;DHT22;3281;47.658;9.166;2023-01-23T07:41:52;1.50;1.00
6496;DHT22;3281;47.658;9.166;2023-01-23T07:44:20;1.70;1.00
6496;DHT22;3281;47.658;9.166;2023-01-23T07:46:48;1.60;1.00
6496;DHT22;3281;47.658;9.166;2023-01-23T07:49:15;1.70;1.00
6496;DHT22;3281;47.658;9.166;2023-01-23T07:51:43;1.80;1.00
6496;DHT22;3281;47.658;9.166;2023-01-23T07:54:10;1.60;1.00
6496;DHT22;3281;47.658;9.166;2023-01-23T07:56:36;1.60;1.00
6496;DHT22;3281;47.658;9.166;2023-01-23T07:59:03;1.80;1.00
6496;DHT22;3281;47.658;9.166;2023-01-23T08:01:30;1.80;1.00
6496;DHT22;3281;47.658;9.166;2023-01-23T08:03:57;1.80;1.00
6496;DHT22;3281;47.658;9.166;2023-01-23T08:06:23;1.90;1.00
6496;DHT22;3281;47.658;9.166;2023-01-23T08:08:51;1.90;1.00
6496;DHT22;3281;47.658;9.166;2023-01-23T08:11:18;1.90;1.00
6496;DHT22;3281;47.658;9.166;2023-01-23T08:13:47;1.80;1.00
6496;DHT22;3281;47.658;9.166;2023-01-23T08:16:14;1.70;1.00
6496;DHT22;3281;47.658;9.166;2023-01-23T08:18:41;1.90;1.00
6496;DHT22;3281;47.658;9.166;2023-01-23T08:21:08;1.90;1.00
6496;DHT22;3281;47.658;9.166;2023-01-23T08:23:35;1.80;1.00
6496;DHT22;3281;47.658;9.166;2023-01-23T08:26:05;1.90;1.00
6496;DHT22;3281;47.658;9.166;2023-01-23T08:28:33;2.10;1.00
6496;DHT22;3281;47.658;9.166;2023-01-23T08:31:00;2.00;1.00
6496;DHT22;3281;47.658;9.166;2023-01-23T08:33:27;1.90;1.00
6496;DHT22;3281;47.658;9.166;2023-01-23T08:35:56;1.90;1.00
6496;DHT22;3281;47.658;9.166;2023-01-23T08:38:23;2.00;1.00
6496;DHT22;3281;47.658;9.166;2023-01-23T08:40:51;2.30;1.00
6496;DHT22;3281;47.658;9.166;2023-01-23T08:43:21;2.20;1.00
6496;DHT22;3281;47.658;9.166;2023-01-23T08:45:48;2.20;1.00
6496;DHT22;3281;47.658;9.166;2023-01-23T08:48:15;2.20;1.00
6496;DHT22;3281;47.658;9.166;2023-01-23T08:50:42;2.20;1.00
6496;DHT22;3281;47.658;9.166;2023-01-23T08:53:09;2.10;1.00
6496;DHT22;3281;47.658;9.166;2023-01-23T08:55:36;2.20;1.00
6496;DHT22;3281;47.658;9.166;2023-01-23T08:58:03;2.20;1.00
6496;DHT22;3281;47.658;9.166;2023-01-23T09:00:32;2.30;1.00
6496;DHT22;3281;47.658;9.166;2023-01-23T09:02:59;2.30;1.00
6496;DHT22;3281;47.658;9.166;2023-01-23T09:05:27;2.20;1.00
6496;DHT22;3281;47.658;9.166;2023-01-23T09:07:54;2.20;1.00
6496;DHT22;3281;47.658;9.166;2023-01-23T09:10:21;2.10;1.00
6496;DHT22;3281;47.658;9.166;2023-01-23T09:12:50;2.00;1.00
6496;DHT22;3281;47.658;9.166;2023-01-23T09:15:16;1.90;1.00
6496;DHT22;3281;47.658;9.166;2023-01-23T09:17:45;2.00;1.00
6496;DHT22;3281;47.658;9.166;2023-01-23T09:20:11;2.20;1.00
6496;DHT22;3281;47.658;9.166;2023-01-23T09:22:38;2.20;1.00
6496;DHT22;3281;47.658;9.166;2023-01-23T09:25:06;2.00;1.00
6496;DHT22;3281;47.658;9.166;2023-01-23T09:27:33;1.90;1.00
6496;DHT22;3281;47.658;9.166;2023-01-23T09:29:59;2.10;1.00
6496;DHT22;3281;47.658;9.166;2023-01-23T09:32:26;2.00;1.00
6496;DHT22;3281;47.658;9.166;2023-01-23T09:34:54;2.00;1.00
6496;DHT22;3281;47.658;9.166;2023-01-23T09:37:21;2.00;1.00
6496;DHT22;3281;47.658;9.166;2023-01-23T09:39:47;2.10;1.00
6496;DHT22;3281;47.658;9.166;2023-01-23T09:42:17;2.20;1.00
6496;DHT22;3281;47.658;9.166;2023-01-23T09:44:47;2.30;1.00
6496;DHT22;3281;47.658;9.166;2023-01-23T09:47:19;2.10;1.00
6496;DHT22;3281;47.658;9.166;2023-01-23T09:49:52;2.20;1.00
6496;DHT22;3281;47.658;9.166;2023-01-23T09:52:26;2.20;1.00
6496;DHT22;3281;47.658;9.166;2023-01-23T09:54:58;2.10;1.00
6496;DHT22;3281;47.658;9.166;2023-01-23T09:57:32;1.90;1.00
6496;DHT22;3281;47.658;9.166;2023-01-23T10:00:03;2.10;1.00
6496;DHT22;3281;47.658;9.166;2023-01-23T10:02:35;2.20;1.00
6496;DHT22;3281;47.658;9.166;2023-01-23T10:05:02;2.10;1.00
6496;DHT22;3281;47.658;9.166;2023-01-23T10:07:43;2.00;1.00
6496;DHT22;3281;47.658;9.166;2023-01-23T10:10:27;2.10;1.00
6496;DHT22;3281;47.658;9.166;2023-01-23T10:13:03;2.20;1.00
6496;DHT22;3281;47.658;9.166;2023-01-23T10:15:41;2.20;1.00
6496;DHT22;3281;47.658;9.166;2023-01-23T10:18:17;2.30;1.00
6496;DHT22;3281;47.658;9.166;2023-01-23T10:20:51;2.40;1.00
6496;DHT22;3281;47.658;9.166;2023-01-23T10:23:34;2.40;1.00
6496;DHT22;3281;47.658;9.166;2023-01-23T10:26:14;2.40;1.00
6496;DHT22;3281;47.658;9.166;2023-01-23T10:28:42;2.40;1.00
6496;DHT22;3281;47.658;9.166;2023-01-23T10:31:14;2.60;1.00
6496;DHT22;3281;47.658;9.166;2023-01-23T10:33:49;2.60;1.00
6496;DHT22;3281;47.658;9.166;2023-01-23T10:36:22;2.50;1.00
6496;DHT22;3281;47.658;9.166;2023-01-23T10:38:57;2.30;1.00
6496;DHT22;3281;47.658;9.166;2023-01-23T10:41:25;2.40;1.00
6496;DHT22;3281;47.658;9.166;2023-01-23T10:43:53;2.30;1.00
6496;DHT22;3281;47.658;9.166;2023-01-23T10:46:26;2.50;1.00
6496;DHT22;3281;47.658;9.166;2023-01-23T10:48:53;2.60;1.00
6496;DHT22;3281;47.658;9.166;2023-01-23T10:51:30;2.40;1.00
6496;DHT22;3281;47.658;9.166;2023-01-23T10:54:05;2.50;1.00
6496;DHT22;3281;47.658;9.166;2023-01-23T10:56:44;2.40;1.00
6496;DHT22;3281;47.658;9.166;2023-01-23T10:59:18;2.50;1.00
6496;DHT22;3281;47.658;9.166;2023-01-23T11:01:54;2.60;1.00
6496;DHT22;3281;47.658;9.166;2023-01-23T11:04:24;2.70;1.00
6496;DHT22;3281;47.658;9.166;2023-01-23T11:07:01;2.60;1.00
6496;DHT22;3281;47.658;9.166;2023-01-23T11:09:30;2.70;1.00
6496;DHT22;3281;47.658;9.166;2023-01-23T11:12:02;2.80;1.00
6496;DHT22;3281;47.658;9.166;2023-01-23T11:14:29;2.90;1.00
6496;DHT22;3281;47.658;9.166;2023-01-23T11:17:02;2.70;1.00
6496;DHT22;3281;47.658;9.166;2023-01-23T11:19:30;2.80;1.00
6496;DHT22;3281;47.658;9.166;2023-01-23T11:21:59;2.70;1.00
6496;DHT22;3281;47.658;9.166;2023-01-23T11:24:31;2.70;1.00
6496;DHT22;3281;47.658;9.166;2023-01-23T11:26:59;2.90;1.00
6496;DHT22;3281;47.658;9.166;2023-01-23T11:29:28;2.90;1.00
6496;DHT22;3281;47.658;9.166;2023-01-23T11:31:58;2.80;1.00
6496;DHT22;3281;47.658;9.166;2023-01-23T11:34:29;2.80;1.00
6496;DHT22;3281;47.658;9.166;2023-01-23T11:37:04;2.90;1.00
6496;DHT22;3281;47.658;9.166;2023-01-23T11:39:45;2.90;1.00
6496;DHT22;3281;47.658;9.166;2023-01-23T11:42:14;2.80;1.00
6496;DHT22;3281;47.658;9.166;2023-01-23T11:44:41;2.80;1.00
6496;DHT22;3281;47.658;9.166;2023-01-23T11:47:33;2.90;1.00
6496;DHT22;3281;47.658;9.166;2023-01-23T11:50:21;2.80;1.00
6496;DHT22;3281;47.658;9.166;2023-01-23T11:52:56;2.90;1.00
6496;DHT22;3281;47.658;9.166;2023-01-23T11:55:40;3.10;1.00
6496;DHT22;3281;47.658;9.166;2023-01-23T11:58:21;3.10;1.00
6496;DHT22;3281;47.658;9.166;2023-01-23T12:01:02;2.90;1.00
6496;DHT22;3281;47.658;9.166;2023-01-23T12:03:56;2.90;1.00
6496;DHT22;3281;47.658;9.166;2023-01-23T12:06:37;2.80;1.00
6496;DHT22;3281;47.658;9.166;2023-01-23T12:09:10;2.70;1.00
6496;DHT22;3281;47.658;9.166;2023-01-23T12:11:50;2.70;1.00
6496;DHT22;3281;47.658;9.166;2023-01-23T12:14:25;2.90;1.00
6496;DHT22;3281;47.658;9.166;2023-01-23T12:17:00;2.70;1.00
6496;DHT22;3281;47.658;9.166;2023-01-23T12:19:52;2.80;1.00
6496;DHT22;3281;47.658;9.166;2023-01-23T12:22:31;2.70;1.00
6496;DHT22;3281;47.658;9.166;2023-01-23T12:25:16;2.70;1.00
6496;DHT22;3281;47.658;9.166;2023-01-23T12:27:49;2.90;1.00
6496;DHT22;3281;47.658;9.166;2023-01-23T12:30:35;3.00;1.00
6496;DHT22;3281;47.658;9.166;2023-01-23T12:33:18;3.00;1.00
6496;DHT22;3281;47.658;9.166;2023-01-23T12:35:53;2.90;1.00
6496;DHT22;3281;47.658;9.166;2023-01-23T12:38:24;3.10;1.00
6496;DHT22;3281;47.658;9.166;2023-01-23T12:41:00;3.10;1.00
6496;DHT22;3281;47.658;9.166;2023-01-23T12:43:34;2.90;1.00
6496;DHT22;3281;47.658;9.166;2023-01-23T12:46:04;2.90;1.00
6496;DHT22;3281;47.658;9.166;2023-01-23T12:48:38;3.00;1.00
6496;DHT22;3281;47.658;9.166;2023-01-23T12:51:09;3.30;1.00
6496;DHT22;3281;47.658;9.166;2023-01-23T12:53:38;3.10;1.00
6496;DHT22;3281;47.658;9.166;2023-01-23T12:56:09;3.10;1.00
6496;DHT22;3281;47.658;9.166;2023-01-23T12:58:40;2.80;1.00
6496;DHT22;3281;47.658;9.166;2023-01-23T13:01:26;3.10;1.00
6496;DHT22;3281;47.658;9.166;2023-01-23T13:04:14;3.20;1.00
6496;DHT22;3281;47.658;9.166;2023-01-23T13:06:51;3.10;1.00
6496;DHT22;3281;47.658;9.166;2023-01-23T13:09:26;3.20;1.00
6496;DHT22;3281;47.658;9.166;2023-01-23T13:12:05;3.20;1.00
6496;DHT22;3281;47.658;9.166;2023-01-23T13:14:38;3.10;1.00
6496;DHT22;3281;47.658;9.166;2023-01-23T13:17:30;3.20;1.00
6496;DHT22;3281;47.658;9.166;2023-01-23T13:20:22;3.20;1.00
6496;DHT22;3281;47.658;9.166;2023-01-23T13:23:21;3.10;1.00
6496;DHT22;3281;47.658;9.166;2023-01-23T13:25:49;3.30;1.00
6496;DHT22;3281;47.658;9.166;2023-01-23T13:28:31;3.30;1.00
6496;DHT22;3281;47.658;9.166;2023-01-23T13:31:00;3.30;1.00
6496;DHT22;3281;47.658;9.166;2023-01-23T13:33:52;3.30;1.00
6496;DHT22;3281;47.658;9.166;2023-01-23T13:36:34;3.30;1.00
6496;DHT22;3281;47.658;9.166;2023-01-23T13:39:26;3.20;1.00
6496;DHT22;3281;47.658;9.166;2023-01-23T13:45:21;3.10;1.00
6496;DHT22;3281;47.658;9.166;2023-01-23T13:51:17;3.20;1.00
6496;DHT22;3281;47.658;9.166;2023-01-23T13:53:46;3.30;1.00
6496;DHT22;3281;47.658;9.166;2023-01-23T13:56:34;3.10;1.00
6496;DHT22;3281;47.658;9.166;2023-01-23T13:59:11;3.20;1.00
6496;DHT22;3281;47.658;9.166;2023-01-23T14:01:45;3.10;1.00
6496;DHT22;3281;47.658;9.166;2023-01-23T14:04:34;3.30;1.00
6496;DHT22;3281;47.658;9.166;2023-01-23T14:07:24;3.30;1.00
6496;DHT22;3281;47.658;9.166;2023-01-23T14:10:17;3.30;1.00
6496;DHT22;3281;47.658;9.166;2023-01-23T14:12:44;3.20;1.00
6496;DHT22;3281;47.658;9.166;2023-01-23T14:15:19;3.20;1.00
6496;DHT22;3281;47.658;9.166;2023-01-23T14:18:04;3.40;1.00
6496;DHT22;3281;47.658;9.166;2023-01-23T14:20:40;3.40;1.00
6496;DHT22;3281;47.658;9.166;2023-01-23T14:23:16;3.40;1.00
6496;DHT22;3281;47.658;9.166;2023-01-23T14:25:46;3.40;1.00
6496;DHT22;3281;47.658;9.166;2023-01-23T14:28:16;3.30;1.00
6496;DHT22;3281;47.658;9.166;2023-01-23T14:30:52;3.30;1.00
6496;DHT22;3281;47.658;9.166;2023-01-23T14:33:19;3.30;1.00
6496;DHT22;3281;47.658;9.166;2023-01-23T14:35:47;3.30;1.00
6496;DHT22;3281;47.658;9.166;2023-01-23T14:38:23;3.20;1.00
6496;DHT22;3281;47.658;9.166;2023-01-23T14:40:52;3.30;1.00
6496;DHT22;3281;47.658;9.166;2023-01-23T14:43:20;3.20;1.00
6496;DHT22;3281;47.658;9.166;2023-01-23T14:45:54;3.20;1.00
6496;DHT22;3281;47.658;9.166;2023-01-23T14:48:22;3.40;1.00
6496;DHT22;3281;47.658;9.166;2023-01-23T14:51:00;3.40;1.00
6496;DHT22;3281;47.658;9.166;2023-01-23T14:53:27;3.50;1.00
6496;DHT22;3281;47.658;9.166;2023-01-23T14:55:54;3.50;1.00
6496;DHT22;3281;47.658;9.166;2023-01-23T14:58:24;3.40;1.00
6496;DHT22;3281;47.658;9.166;2023-01-23T15:00:53;3.30;1.00
6496;DHT22;3281;47.658;9.166;2023-01-23T15:03:34;3.30;1.00
6496;DHT22;3281;47.658;9.166;2023-01-23T15:06:06;3.30;1.00
6496;DHT22;3281;47.658;9.166;2023-01-23T15:08:34;3.20;1.00
6496;DHT22;3281;47.658;9.166;2023-01-23T15:11:01;3.20;1.00
6496;DHT22;3281;47.658;9.166;2023-01-23T15:13:35;3.20;1.00
6496;DHT22;3281;47.658;9.166;2023-01-23T15:16:04;3.30;1.00
6496;DHT22;3281;47.658;9.166;2023-01-23T15:18:34;3.20;1.00
6496;DHT22;3281;47.658;9.166;2023-01-23T15:21:04;3.30;1.00
6496;DHT22;3281;47.658;9.166;2023-01-23T15:23:32;3.30;1.00
6496;DHT22;3281;47.658;9.166;2023-01-23T15:26:22;3.20;1.00
6496;DHT22;3281;47.658;9.166;2023-01-23T15:28:51;3.30;1.00
6496;DHT22;3281;47.658;9.166;2023-01-23T15:31:23;3.30;1.00
6496;DHT22;3281;47.658;9.166;2023-01-23T15:33:51;3.30;1.00
6496;DHT22;3281;47.658;9.166;2023-01-23T15:36:25;3.40;1.00
6496;DHT22;3281;47.658;9.166;2023-01-23T15:38:52;3.40;1.00
6496;DHT22;3281;47.658;9.166;2023-01-23T15:41:20;3.50;1.00
6496;DHT22;3281;47.658;9.166;2023-01-23T15:43:46;3.40;1.00
6496;DHT22;3281;47.658;9.166;2023-01-23T15:46:13;3.50;1.00
6496;DHT22;3281;47.658;9.166;2023-01-23T15:48:40;3.40;1.00
6496;DHT22;3281;47.658;9.166;2023-01-23T15:51:08;3.50;1.00
6496;DHT22;3281;47.658;9.166;2023-01-23T15:53:38;3.60;1.00
6496;DHT22;3281;47.658;9.166;2023-01-23T15:56:12;3.40;1.00
6496;DHT22;3281;47.658;9.166;2023-01-23T15:58:45;3.40;1.00
6496;DHT22;3281;47.658;9.166;2023-01-23T16:01:12;3.40;1.00
6496;DHT22;3281;47.658;9.166;2023-01-23T16:03:38;3.50;1.00
6496;DHT22;3281;47.658;9.166;2023-01-23T16:06:08;3.50;1.00
6496;DHT22;3281;47.658;9.166;2023-01-23T16:08:37;3.50;1.00
6496;DHT22;3281;47.658;9.166;2023-01-23T16:11:04;3.50;1.00
6496;DHT22;3281;47.658;9.166;2023-01-23T16:13:31;3.60;1.00
6496;DHT22;3281;47.658;9.166;2023-01-23T16:15:57;3.60;1.00
6496;DHT22;3281;47.658;9.166;2023-01-23T16:18:24;3.80;1.00
6496;DHT22;3281;47.658;9.166;2023-01-23T16:20:51;3.60;1.00
6496;DHT22;3281;47.658;9.166;2023-01-23T16:23:19;3.70;1.00
6496;DHT22;3281;47.658;9.166;2023-01-23T16:25:50;3.70;1.00
6496;DHT22;3281;47.658;9.166;2023-01-23T16:28:19;3.70;1.00
6496;DHT22;3281;47.658;9.166;2023-01-23T16:30:46;3.70;1.00
6496;DHT22;3281;47.658;9.166;2023-01-23T16:33:14;3.80;1.00
6496;DHT22;3281;47.658;9.166;2023-01-23T16:35:41;3.80;1.00
6496;DHT22;3281;47.658;9.166;2023-01-23T16:38:15;3.60;1.00
6496;DHT22;3281;47.658;9.166;2023-01-23T16:40:44;3.70;1.00
6496;DHT22;3281;47.658;9.166;2023-01-23T16:43:12;3.60;1.00
6496;DHT22;3281;47.658;9.166;2023-01-23T16:45:39;3.60;1.00
6496;DHT22;3281;47.658;9.166;2023-01-23T16:48:05;3.70;1.00
6496;DHT22;3281;47.658;9.166;2023-01-23T16:50:34;3.60;1.00
6496;DHT22;3281;47.658;9.166;2023-01-23T16:53:04;3.70;1.00
6496;DHT22;3281;47.658;9.166;2023-01-23T16:55:34;3.70;1.00
6496;DHT22;3281;47.658;9.166;2023-01-23T16:58:01;3.60;1.00
6496;DHT22;3281;47.658;9.166;2023-01-23T17:00:31;3.70;1.00